x

Virginia Beach 64 Nm East Of Virginia Beach, Va (44014) Wave Buoy

6:50am - Tue 27th Jan 2015 All times are EST. -5 hours from GMT.

  • Sig Wave height 13.1ft
  • Swell Direction
  • Peak Period 11s
  • Average Period 7s
  • Wind
    25mph, 31mph gusts
  • Sea Temp 51°f
  • Air Temp 37°f
  • Sea Pressure 1003.2mb
  • Virginia Beach 64 Nm East Of Virginia Beach, Va
  • Virginia Beach 64 Nm East Of Virginia Beach, Va

More Historic Weather Station data

Upgrade to MSW Pro to gain access to the past 30 days of data for over 8000 Wavebouys and Weather Stations around the globe.

Join Pro

Comparision Forecast

View Surf forecast
   
Tue 01/27 6:50am 13ft 11s 7s 25 31 mph 1003.2mb 51f 37f
5:50am 12.5ft 11s 7s 29 34 mph 1001.6mb 51f 38f
4:50am 14ft 11s 7s 29 36 mph 1001.1mb 52f 39f
3:50am 15ft 11s 7s 34 40 mph 1000.2mb 52f 40f
2:50am 13.5ft 10s 7s 34 40 mph 999.4mb 52f 42f
1:50am 13ft 11s 7s 31 38 mph 998.6mb 52f 44f
12:50am 12ft 10s 7s 34 40 mph 997.5mb 52f 46f
Mon 01/26 11:50pm 10ft 10s 6s 29 36 mph 997.1mb 52f 47f
10:50pm 9ft 9s 6s 31 38 mph 996.6mb 52f 46f
9:50pm 8ft 8s 5s 31 38 mph 997mb 52f 45f
8:50pm 7ft 7s 5s 31 38 mph 997.3mb 52f 46f
7:50pm 5.5ft 6s 5s 27 31 mph 997.3mb 52f 47f
6:50pm 4.5ft 7s 4s 27 34 mph 997.3mb 52f 48f
5:50pm 3.5ft 6s 5s 22 29 mph 997mb 52f 51f
4:50pm 3.5ft 5s 5s 16 18 mph 997.1mb 52f 51f
3:50pm 4ft 6s 5s 13 18 mph 997.7mb 52f 52f
2:50pm 3.5ft 5s 5s 9 11 mph 997.5mb 52f 55f
1:50pm 3.5ft 8s 5s 13 16 mph 998mb 52f 55f
12:50pm 3.5ft 4s 4s 13 16 mph 999.2mb 52f 55f
11:50am 3ft 8s 5s 16 20 mph 1001.3mb 52f 54f
10:50am 3ft 8s 5s 16 20 mph 1002.4mb 52f 54f
9:50am 3ft 8s 5s 13 16 mph 1003.9mb 52f 53f
8:50am 3ft 8s 5s 11 16 mph 1004.8mb 52f 54f
7:50am 3ft 8s 5s 16 18 mph 1005.3mb 52f 54f
6:50am 3ft 8s 7s 13 18 mph 1005.9mb 52f 53f
5:50am 3ft 9s 7s 13 16 mph 1006.4mb 52f 53f
4:50am 2.5ft 8s 6s 7
mph
1008mb 52f 51f
3:50am 3ft 8s 6s 2 4 mph 1008.8mb 52f 51f
2:50am 3ft 9s 6s 2
mph
1009.8mb 53f 50f
1:50am 3ft 9s 6s 4 7 mph 1010.5mb 53f 50f
12:50am 3.5ft 9s 6s 9
mph
1011mb 53f 50f
Sun 01/25 11:50pm 3ft 10s 6s 7 9 mph 1011.7mb 53f 49f
10:50pm 3.5ft 10s 5s 9 13 mph 1012.6mb 53f 49f
9:50pm 3.5ft 10s 6s 13 16 mph 1012.6mb 52f 50f
8:50pm 3ft 10s 6s 11 13 mph 1012.5mb 52f 49f
7:50pm 3.5ft 10s 6s 9 11 mph 1012.7mb 52f 48f
6:50pm 3.5ft 10s 6s 9 11 mph 1012.9mb 52f 48f
5:50pm 3.5ft 10s 6s 9 11 mph 1012.3mb 52f 47f
4:50pm 4ft 10s 6s 11
mph
1012.6mb 52f 47f
3:50pm 4ft 10s 6s 9 11 mph 1012.4mb 53f 46f
2:50pm 4.5ft 10s 6s 7 9 mph 1012.1mb 53f 46f
1:50pm 4.5ft 10s 6s 4 7 mph 1012mb 53f 47f
12:50pm 4.5ft 11s 6s 9 11 mph 1013.1mb 53f 46f
11:50am 5ft 8s 5s 11 13 mph 1013.3mb 53f 46f
10:50am 4.5ft 5s 5s 11 13 mph 1013.5mb 53f 46f
9:50am 5.5ft 6s 5s 16 20 mph 1012.6mb 53f 45f
8:50am 6ft 6s 5s 20 25 mph 1012.2mb 52f 45f
7:50am 6ft 6s 5s 27 29 mph 1011.5mb 52f 45f
6:50am 6ft 6s 5s 20 22 mph 1010.6mb 52f 44f
5:50am 6ft 11s 6s 20 25 mph 1009.4mb 52f 44f
4:50am 6.5ft 11s 5s 20 25 mph 1008.5mb 52f 44f
3:50am 7ft 6s 6s 22 27 mph 1007.5mb 52f 44f
2:50am 8ft 11s 6s 22 29 mph 1007.3mb 53f 45f
1:50am 8ft 11s 6s 25 29 mph 1006.6mb 53f 45f
12:50am 8ft 11s 6s 25 29 mph 1005.7mb 53f 46f
Sat 01/24 11:50pm 8ft 12s 6s 27 31 mph 1005.1mb 53f 46f
10:50pm 8ft 11s 6s 27 31 mph 1004.4mb 53f 47f
9:50pm 8ft 6s 6s 25 29 mph 1004mb 53f 46f
8:50pm 9ft 11s 6s 27 34 mph 1003.4mb 53f 46f
7:50pm 10ft 7s 6s 27 34 mph 1002.4mb 53f 45f
6:50pm 10ft 7s 6s 27 34 mph 1001.2mb 53f 45f
5:50pm 10ft 7s 6s 31 38 mph 998.9mb 52f 44f
4:50pm 10ft 11s 6s 31 38 mph 997.6mb 52f 44f
3:50pm 10.5ft 11s 6s 31 40 mph 996.9mb 52f 42f
2:50pm 11ft 11s 7s 29 38 mph 995.2mb 53f 42f
1:50pm 10ft 11s 7s 25 31 mph 993.1mb 53f 43f
12:50pm 11ft 11s 7s 25 31 mph 992.9mb 53f 43f
11:50am 11ft 10s 7s 25 29 mph 992.8mb 53f 44f
10:50am 10ft 9s 7s 18 25 mph 994.9mb 54f 45f
9:50am 11ft 10s 7s 16 20 mph 994.8mb 54f 47f
8:50am 12.5ft 10s 8s 18 22 mph 996.2mb 54f 46f
7:50am 11.5ft 10s 7s 20 27 mph 997.1mb 54f -
6:50am 11ft 9s 7s 20 25 mph 996.9mb 54f 59f
5:50am 13ft 10s 7s 22 27 mph 997.3mb 54f 60f
4:50am 13ft 9s 7s 22 31 mph 998.5mb 54f 60f
3:50am 10.5ft 8s 7s 29 36 mph 1000mb 54f 61f
2:50am 10ft 8s 6s 29 34 mph 1002.2mb 55f 61f
1:50am 9ft 7s 6s 29 38 mph 1004.8mb 56f 60f
12:50am 7ft 6s 5s 29 36 mph 1007mb 56f 59f
Fri 01/23 11:50pm 6ft 6s 5s 27 34 mph 1009.4mb 55f 58f
10:50pm 4.5ft 9s 5s 27 34 mph 1011.9mb 55f 58f
9:50pm 3.5ft 10s 5s 25 29 mph 1014mb 55f 58f
8:50pm 3.5ft 10s 5s 20 22 mph 1015.4mb 55f 55f
7:50pm 3.5ft 10s 6s 16 18 mph 1017.9mb 55f 52f
6:50pm 3.5ft 11s 6s 13 18 mph 1019.1mb 55f 51f
5:50pm 3.5ft 8s 6s 11 13 mph 1020mb 55f 49f
4:50pm 3.5ft 9s 6s 9 11 mph 1021.1mb 56f 48f
3:50pm 3.5ft 10s 6s 7 9 mph 1022mb 57f 48f
2:50pm 3.5ft 10s 6s 7 9 mph 1022.4mb 58f 47f
1:50pm 3.5ft 8s 5s 7 9 mph 1023.2mb 58f 47f
12:50pm 3.5ft 7s 5s 4 7 mph 1024.4mb 58f 47f